DAL1715 KLAX-KSFO
Flight info
| Callsign | DAL1715 |
|---|---|
| Flight time | 0h 36m |
| Altitude | 34000 |
| Route | SUMMR2 STOKD SERFR SERFR4 |
| Aircraft | A321/M-SDE3FGHIRWY/LB1 |
Departure
| Time | 2026-04-23 04:25 |
|---|---|
| Airport | Los Angeles International Airport (KLAX) |
Arrival
| Time | 2026-04-23 05:01 |
|---|---|
| Airport | San Francisco International Airport (KSFO) |
| Time | Latitude | Longitude | Altitude | Speed | Heading |
|---|---|---|---|---|---|
| 2026-04-23 03:59 | 33.94730 | -118.40443 | 96 ft | 0 kts | 163° |
| 2026-04-23 03:59 | 33.94716 | -118.40486 | 97 ft | 0 kts | 132° |
| 2026-04-23 04:16 | 33.94717 | -118.40486 | 95 ft | 1 kts | 132° |
| 2026-04-23 04:16 | 33.94726 | -118.40499 | 96 ft | 3 kts | 128° |
| 2026-04-23 04:17 | 33.94738 | -118.40517 | 95 ft | 3 kts | 121° |
| 2026-04-23 04:17 | 33.94745 | -118.40534 | 96 ft | 3 kts | 109° |
| 2026-04-23 04:17 | 33.94750 | -118.40556 | 97 ft | 3 kts | 81° |
| 2026-04-23 04:17 | 33.94746 | -118.40571 | 93 ft | 2 kts | 31° |
| 2026-04-23 04:18 | 33.94743 | -118.40574 | 96 ft | 0 kts | 25° |
| 2026-04-23 04:21 | 33.94744 | -118.40573 | 96 ft | 1 kts | 24° |
| 2026-04-23 04:22 | 33.94767 | -118.40555 | 96 ft | 7 kts | 41° |
| 2026-04-23 04:22 | 33.94793 | -118.40473 | 96 ft | 14 kts | 82° |
| 2026-04-23 04:22 | 33.94810 | -118.40328 | 97 ft | 19 kts | 81° |
| 2026-04-23 04:22 | 33.94831 | -118.40177 | 99 ft | 17 kts | 82° |
| 2026-04-23 04:23 | 33.94886 | -118.40080 | 98 ft | 13 kts | 25° |
| 2026-04-23 04:23 | 33.94925 | -118.40005 | 99 ft | 10 kts | 76° |
| 2026-04-23 04:23 | 33.94946 | -118.39941 | 101 ft | 7 kts | 54° |
| 2026-04-23 04:23 | 33.94965 | -118.39921 | 101 ft | 0 kts | 33° |
| 2026-04-23 04:24 | 33.94976 | -118.39916 | 104 ft | 5 kts | 18° |
| 2026-04-23 04:24 | 33.95025 | -118.39924 | 109 ft | 9 kts | 326° |
| 2026-04-23 04:24 | 33.95036 | -118.39998 | 109 ft | 14 kts | 266° |
| 2026-04-23 04:24 | 33.94993 | -118.40418 | 110 ft | 93 kts | 263° |
| 2026-04-23 04:25 | 33.94883 | -118.41489 | 117 ft | 160 kts | 263° |
| 2026-04-23 04:25 | 33.94739 | -118.42856 | 868 ft | 164 kts | 262° |
| 2026-04-23 04:25 | 33.94597 | -118.44219 | 1802 ft | 164 kts | 264° |
| 2026-04-23 04:25 | 33.94462 | -118.45589 | 2390 ft | 167 kts | 264° |
| 2026-04-23 04:26 | 33.94334 | -118.47059 | 2561 ft | 186 kts | 267° |
| 2026-04-23 04:26 | 33.94267 | -118.48690 | 2703 ft | 204 kts | 269° |
| 2026-04-23 04:26 | 33.94218 | -118.50461 | 2826 ft | 222 kts | 269° |
| 2026-04-23 04:26 | 33.94124 | -118.52408 | 3023 ft | 244 kts | 266° |
| 2026-04-23 04:27 | 33.93973 | -118.54496 | 3586 ft | 254 kts | 266° |
| 2026-04-23 04:27 | 33.93802 | -118.56627 | 4344 ft | 258 kts | 265° |
| 2026-04-23 04:27 | 33.93625 | -118.58787 | 5112 ft | 261 kts | 265° |
| 2026-04-23 04:28 | 33.93268 | -118.63176 | 6650 ft | 265 kts | 265° |
| 2026-04-23 04:28 | 33.93093 | -118.65362 | 7394 ft | 266 kts | 265° |
| 2026-04-23 04:28 | 33.92918 | -118.67580 | 8175 ft | 266 kts | 265° |
| 2026-04-23 04:28 | 33.92746 | -118.69798 | 8965 ft | 266 kts | 266° |
| 2026-04-23 04:29 | 33.92575 | -118.72017 | 9747 ft | 266 kts | 266° |
| 2026-04-23 04:29 | 33.92402 | -118.74251 | 10322 ft | 274 kts | 265° |
| 2026-04-23 04:29 | 33.92214 | -118.76627 | 10460 ft | 296 kts | 265° |
| 2026-04-23 04:29 | 33.92011 | -118.79205 | 10710 ft | 312 kts | 265° |
| 2026-04-23 04:30 | 33.91805 | -118.81830 | 11276 ft | 317 kts | 265° |
| 2026-04-23 04:30 | 33.91722 | -118.84484 | 11893 ft | 318 kts | 272° |
| 2026-04-23 04:30 | 33.91806 | -118.87151 | 12588 ft | 319 kts | 272° |
| 2026-04-23 04:30 | 33.91958 | -118.92018 | 13834 ft | 322 kts | 272° |
| 2026-04-23 04:31 | 33.92117 | -118.97432 | 15050 ft | 325 kts | 272° |
| 2026-04-23 04:31 | 33.92917 | -119.02732 | 16184 ft | 332 kts | 290° |
| 2026-04-23 04:31 | 33.95304 | -119.07570 | 17321 ft | 339 kts | 298° |
| 2026-04-23 04:31 | 33.97001 | -119.10841 | 18067 ft | 342 kts | 298° |
| 2026-04-23 04:32 | 33.99521 | -119.15754 | 19064 ft | 346 kts | 297° |
| 2026-04-23 04:32 | 34.02746 | -119.20159 | 19988 ft | 361 kts | 317° |
| 2026-04-23 04:32 | 34.06893 | -119.23667 | 20950 ft | 365 kts | 318° |
| 2026-04-23 04:32 | 34.11050 | -119.27238 | 21883 ft | 368 kts | 317° |
| 2026-04-23 04:33 | 34.15236 | -119.30858 | 22795 ft | 372 kts | 317° |
| 2026-04-23 04:33 | 34.19465 | -119.34516 | 23685 ft | 375 kts | 317° |
| 2026-04-23 04:33 | 34.23728 | -119.38205 | 24405 ft | 379 kts | 317° |
| 2026-04-23 04:33 | 34.28037 | -119.41933 | 25089 ft | 383 kts | 317° |
| 2026-04-23 04:34 | 34.32384 | -119.45690 | 25769 ft | 386 kts | 317° |
| 2026-04-23 04:34 | 34.36781 | -119.49493 | 26439 ft | 390 kts | 317° |
| 2026-04-23 04:34 | 34.41114 | -119.53328 | 27077 ft | 389 kts | 313° |
| 2026-04-23 04:34 | 34.44922 | -119.57935 | 27731 ft | 389 kts | 308° |
| 2026-04-23 04:35 | 34.48734 | -119.62626 | 28371 ft | 392 kts | 308° |
| 2026-04-23 04:35 | 34.52584 | -119.67354 | 29001 ft | 395 kts | 308° |
| 2026-04-23 04:35 | 34.56515 | -119.72191 | 29574 ft | 399 kts | 308° |
| 2026-04-23 04:35 | 34.60414 | -119.77005 | 30155 ft | 402 kts | 308° |
| 2026-04-23 04:36 | 34.64340 | -119.81864 | 30662 ft | 404 kts | 308° |
| 2026-04-23 04:36 | 34.68263 | -119.86723 | 31443 ft | 400 kts | 308° |
| 2026-04-23 04:36 | 34.72140 | -119.91523 | 32264 ft | 396 kts | 308° |
| 2026-04-23 04:36 | 34.75978 | -119.96275 | 33039 ft | 392 kts | 308° |
| 2026-04-23 04:37 | 34.79769 | -120.00988 | 33729 ft | 388 kts | 308° |
| 2026-04-23 04:37 | 34.83544 | -120.05688 | 34165 ft | 391 kts | 307° |
| 2026-04-23 04:37 | 34.91202 | -120.15271 | 34181 ft | 396 kts | 308° |
| 2026-04-23 04:38 | 34.98880 | -120.24864 | 34190 ft | 395 kts | 307° |
| 2026-04-23 04:38 | 35.06474 | -120.34390 | 34196 ft | 394 kts | 307° |
| 2026-04-23 04:39 | 35.14370 | -120.43702 | 34192 ft | 396 kts | 311° |
| 2026-04-23 04:39 | 35.22551 | -120.52682 | 34187 ft | 394 kts | 310° |
| 2026-04-23 04:40 | 35.30613 | -120.61784 | 34200 ft | 394 kts | 310° |
| 2026-04-23 04:40 | 35.38677 | -120.70872 | 34192 ft | 394 kts | 310° |
| 2026-04-23 04:41 | 35.46726 | -120.79963 | 34209 ft | 393 kts | 310° |
| 2026-04-23 04:41 | 35.55400 | -120.88341 | 34217 ft | 398 kts | 315° |
| 2026-04-23 04:42 | 35.64221 | -120.96546 | 34219 ft | 397 kts | 314° |
| 2026-04-23 04:42 | 35.73036 | -121.04756 | 34213 ft | 397 kts | 314° |
| 2026-04-23 04:43 | 35.81836 | -121.12988 | 34222 ft | 397 kts | 314° |
| 2026-04-23 04:43 | 35.90632 | -121.21219 | 34230 ft | 397 kts | 314° |
| 2026-04-23 04:44 | 35.99418 | -121.29475 | 34217 ft | 397 kts | 314° |
| 2026-04-23 04:44 | 36.08292 | -121.37613 | 34219 ft | 402 kts | 319° |
| 2026-04-23 04:45 | 36.12992 | -121.41236 | 33353 ft | 392 kts | 319° |
| 2026-04-23 04:45 | 36.17589 | -121.44824 | 30994 ft | 392 kts | 319° |
| 2026-04-23 04:45 | 36.22152 | -121.48392 | 29275 ft | 376 kts | 319° |
| 2026-04-23 04:45 | 36.26387 | -121.51677 | 28532 ft | 348 kts | 318° |
| 2026-04-23 04:46 | 36.30413 | -121.54841 | 27713 ft | 336 kts | 318° |
| 2026-04-23 04:46 | 36.34282 | -121.57879 | 26936 ft | 322 kts | 318° |
| 2026-04-23 04:46 | 36.38025 | -121.60824 | 26216 ft | 318 kts | 317° |
| 2026-04-23 04:46 | 36.41731 | -121.63759 | 25497 ft | 314 kts | 318° |
| 2026-04-23 04:47 | 36.45403 | -121.66656 | 24801 ft | 311 kts | 318° |
| 2026-04-23 04:47 | 36.49047 | -121.69521 | 24040 ft | 309 kts | 318° |
| 2026-04-23 04:47 | 36.52654 | -121.72367 | 23193 ft | 305 kts | 318° |
| 2026-04-23 04:47 | 36.56199 | -121.75173 | 22410 ft | 301 kts | 318° |
| 2026-04-23 04:48 | 36.59722 | -121.77958 | 21615 ft | 298 kts | 319° |
| 2026-04-23 04:48 | 36.63197 | -121.80705 | 20820 ft | 294 kts | 319° |
| 2026-04-23 04:48 | 36.66626 | -121.83438 | 20035 ft | 291 kts | 319° |
| 2026-04-23 04:48 | 36.70016 | -121.86136 | 19248 ft | 288 kts | 319° |
| 2026-04-23 04:49 | 36.73403 | -121.88774 | 18462 ft | 289 kts | 324° |
| 2026-04-23 04:49 | 36.77322 | -121.90320 | 17443 ft | 303 kts | 338° |
| 2026-04-23 04:49 | 36.81439 | -121.91452 | 16571 ft | 301 kts | 339° |
| 2026-04-23 04:49 | 36.85510 | -121.92581 | 15784 ft | 299 kts | 340° |
| 2026-04-23 04:50 | 36.89553 | -121.93711 | 14991 ft | 297 kts | 340° |
| 2026-04-23 04:50 | 36.93586 | -121.94835 | 14200 ft | 297 kts | 341° |
| 2026-04-23 04:50 | 36.97566 | -121.96116 | 13393 ft | 293 kts | 338° |
| 2026-04-23 04:50 | 37.00663 | -121.97342 | 12788 ft | 290 kts | 337° |
| 2026-04-23 04:51 | 37.03876 | -121.98647 | 12145 ft | 288 kts | 338° |
| 2026-04-23 04:51 | 37.07681 | -122.00170 | 11380 ft | 287 kts | 338° |
| 2026-04-23 04:51 | 37.11485 | -122.01662 | 10594 ft | 286 kts | 339° |
| 2026-04-23 04:51 | 37.15245 | -122.03128 | 10139 ft | 275 kts | 339° |
| 2026-04-23 04:52 | 37.18312 | -122.04331 | 9978 ft | 281 kts | 339° |
| 2026-04-23 04:52 | 37.20150 | -122.05051 | 9798 ft | 273 kts | 339° |
| 2026-04-23 04:52 | 37.21958 | -122.05759 | 9413 ft | 272 kts | 339° |
| 2026-04-23 04:52 | 37.23735 | -122.06459 | 9016 ft | 270 kts | 339° |
| 2026-04-23 04:53 | 37.25527 | -122.07163 | 8540 ft | 270 kts | 339° |
| 2026-04-23 04:53 | 37.27308 | -122.07860 | 8146 ft | 267 kts | 339° |
| 2026-04-23 04:53 | 37.29070 | -122.08550 | 7745 ft | 264 kts | 339° |
| 2026-04-23 04:53 | 37.30810 | -122.09235 | 7393 ft | 261 kts | 339° |
| 2026-04-23 04:54 | 37.32537 | -122.09916 | 7039 ft | 260 kts | 339° |
| 2026-04-23 04:54 | 37.34259 | -122.10594 | 6686 ft | 259 kts | 340° |
| 2026-04-23 04:54 | 37.35971 | -122.11270 | 6316 ft | 258 kts | 340° |
| 2026-04-23 04:54 | 37.37679 | -122.11943 | 5961 ft | 256 kts | 340° |
| 2026-04-23 04:55 | 37.39386 | -122.12567 | 5656 ft | 255 kts | 342° |
| 2026-04-23 04:55 | 37.41091 | -122.13151 | 5338 ft | 252 kts | 342° |
| 2026-04-23 04:55 | 37.42777 | -122.13716 | 5037 ft | 249 kts | 342° |
| 2026-04-23 04:55 | 37.44446 | -122.14275 | 4727 ft | 247 kts | 342° |
| 2026-04-23 04:56 | 37.46097 | -122.14834 | 4420 ft | 244 kts | 342° |
| 2026-04-23 04:56 | 37.47729 | -122.15392 | 4124 ft | 242 kts | 341° |
| 2026-04-23 04:56 | 37.49350 | -122.15948 | 3827 ft | 241 kts | 341° |
| 2026-04-23 04:56 | 37.50940 | -122.16493 | 3541 ft | 239 kts | 342° |
| 2026-04-23 04:57 | 37.52503 | -122.17175 | 3348 ft | 228 kts | 328° |
| 2026-04-23 04:57 | 37.53701 | -122.18372 | 3111 ft | 215 kts | 308° |
| 2026-04-23 04:57 | 37.54474 | -122.19929 | 2877 ft | 205 kts | 296° |
| 2026-04-23 04:57 | 37.55114 | -122.21444 | 2621 ft | 193 kts | 296° |
| 2026-04-23 04:58 | 37.55729 | -122.22903 | 2367 ft | 184 kts | 295° |
| 2026-04-23 04:58 | 37.56300 | -122.24252 | 2157 ft | 163 kts | 295° |
| 2026-04-23 04:58 | 37.56806 | -122.25453 | 1939 ft | 150 kts | 295° |
| 2026-04-23 04:58 | 37.57318 | -122.26578 | 1736 ft | 146 kts | 301° |
| 2026-04-23 04:59 | 37.57923 | -122.27597 | 1497 ft | 144 kts | 302° |
| 2026-04-23 04:59 | 37.58439 | -122.28674 | 1233 ft | 143 kts | 296° |
| 2026-04-23 04:59 | 37.58900 | -122.29782 | 985 ft | 142 kts | 295° |
| 2026-04-23 04:59 | 37.59327 | -122.30900 | 869 ft | 141 kts | 294° |
| 2026-04-23 05:00 | 37.59779 | -122.31999 | 768 ft | 141 kts | 297° |
| 2026-04-23 05:00 | 37.60243 | -122.33077 | 624 ft | 139 kts | 297° |
| 2026-04-23 05:00 | 37.60690 | -122.34143 | 373 ft | 136 kts | 296° |
| 2026-04-23 05:00 | 37.61132 | -122.35187 | 146 ft | 133 kts | 297° |
| 2026-04-23 05:01 | 37.61561 | -122.36216 | 26 ft | 128 kts | 297° |
| 2026-04-23 05:01 | 37.61912 | -122.37049 | 24 ft | 79 kts | 298° |
| 2026-04-23 05:01 | 37.62113 | -122.37532 | 22 ft | 51 kts | 299° |
| 2026-04-23 05:01 | 37.62220 | -122.37825 | 22 ft | 30 kts | 284° |
| 2026-04-23 05:02 | 37.62229 | -122.38062 | 22 ft | 27 kts | 266° |
| 2026-04-23 05:02 | 37.62164 | -122.38213 | 22 ft | 18 kts | 207° |
| 2026-04-23 05:02 | 37.62058 | -122.38282 | 22 ft | 13 kts | 207° |
| 2026-04-23 05:02 | 37.62014 | -122.38292 | 22 ft | 4 kts | 158° |
| 2026-04-23 05:03 | 37.61985 | -122.38249 | 22 ft | 11 kts | 126° |
| 2026-04-23 05:03 | 37.61940 | -122.38141 | 27 ft | 14 kts | 117° |
| 2026-04-23 05:03 | 37.61891 | -122.38039 | 22 ft | 13 kts | 128° |
| 2026-04-23 05:03 | 37.61823 | -122.37976 | 22 ft | 12 kts | 158° |
| 2026-04-23 05:04 | 37.61750 | -122.37949 | 22 ft | 10 kts | 175° |
| 2026-04-23 05:04 | 37.61681 | -122.37957 | 22 ft | 9 kts | 196° |
| 2026-04-23 05:04 | 37.61625 | -122.37991 | 22 ft | 9 kts | 207° |
| 2026-04-23 05:04 | 37.61574 | -122.38025 | 22 ft | 8 kts | 208° |
| 2026-04-23 05:05 | 37.61544 | -122.38070 | 22 ft | 6 kts | 263° |
| 2026-04-23 05:05 | 37.61553 | -122.38122 | 22 ft | 6 kts | 285° |
| 2026-04-23 05:05 | 37.61563 | -122.38169 | 22 ft | 5 kts | 271° |
| 2026-04-23 05:05 | 37.61550 | -122.38206 | 23 ft | 4 kts | 235° |
| 2026-04-23 05:06 | 37.61538 | -122.38222 | 22 ft | 0 kts | 224° |